Silver Bay, NY

7:43 AM EDT on July 07, 2015 (GMT -0400)
Lake George East Side | | Change Station
CLOSE
Current Station
Personal Weather Station
Location: Huletts Landing, NY
Elevation: 381 ft
Nearby Weather Stations

Elev 381 ft 43.64 °N, 73.51 °W | Updated 2 seconds ago

Overcast
Overcast
70.3 °F
Feels Like 70.3 °F
N
0.0
Wind Variable Wind from ESE
Gusts 1.0 mph

Today
High -- | Low -- °F
--% Chance of Precip.
Yesterday
High -- | Low -- °F
Precip. -- in
5:19 AM 8:37 PM
Waning Gibbous, 65% visible
Pressure 30.04 in
Visibility 10.0 miles
Clouds Scattered Clouds 1900 ft
Mostly Cloudy 7000 ft
Overcast 8000 ft
Dew Point 68 °F
Humidity 93%
Rainfall 0.00 in
Snow Depth Not available.
UV 1 out of 12
Pollen 3.20 out of 12
Air Quality Not available.
Flu Activity Not available.
SPECI KGFL 071137Z AUTO 00000KT 10SM SCT019 BKN070 OVC080 22/19 A3004 RMK AO2 T02220189

More Conditions Fewer Conditions

Pressure 30.04 in
Visibility 10.0 miles
Clouds Scattered Clouds 1900 ft
Mostly Cloudy 7000 ft
Overcast 8000 ft
Dew Point 68 °F
Humidity 93%
Rainfall 0.00 in
Snow Depth Not available.
UV 1 out of 12
Pollen 3.20 out of 12
Air Quality Not available.
Flu Activity Not available.
SPECI KGFL 071137Z AUTO 00000KT 10SM SCT019 BKN070 OVC080 22/19 A3004 RMK AO2 T02220189

More Conditions Fewer Conditions

10-Day Weather Forecast

×

Almanac

Astronomy

Jul. 07, 2015 Rise Set
Actual Time
Civil Twilight
Nautical Twilight
Astronomical Twilight
Moon
Length of Visible Light
Length of Day
Tomorrow will be .
, % of the Moon is Illuminated

Today's Extremes

State Highs State Lows

Community

WunderPhotos

Upload Photos

1,835,770 photos uploaded!

WunderBlogs® & News

Nearby

Air Quality

  Air Quality AQ Index Pollutant
Not available.

Snow Depth

Station Depth Elevation

Earthquake Activity

City Distance Mag. Time & Date
Minimum magnitude displayed is 2.5.

Coastal Water Temperatures

Place Temperature

Stations

Nearby Weather Stations

Station Location Temp. Windchill Dew Point Humidity Wind Precip. Elev Updated Type